Time;durP1;ratioP1;P1;durP2;ratioP2;P2;SDS_P1;SDS_P2;PMS_P1;PMS_P2;Temp;Humidity;BMP_temperature;BMP_pressure;BME280_temperature;BME280_humidity;BME280_pressure;Samples;Min_cycle;Max_cycle;Signal;HPM_P1;HPM_P2
2023/01/10 00:00:42;;;;;;;;;;;;;;;3.13;100.00;96380.16;5050000;28;19916;-70
2023/01/10 00:03:08;;;;;;;;;;;;;;;3.06;100.00;96391.50;5064333;28;20305;-70
2023/01/10 00:05:34;;;;;;;;;;;;;;;3.09;100.00;96391.97;5071452;28;19920;-69
2023/01/10 00:08:01;;;;;;;;;;;;;;;3.27;100.00;96403.50;5063647;28;20689;-68
2023/01/10 00:10:26;;;;;;;;;;;;;;;3.10;100.00;96409.75;5057800;28;19924;-69
2023/01/10 00:15:36;;;;;;;;;;;;;;;3.16;100.00;96406.56;5044192;28;19924;-69
2023/01/10 00:18:02;;;;;;;;;;;;;;;3.35;100.00;96416.19;5062903;28;20349;-70
2023/01/10 00:20:27;;;;;;;;;;;;;;;3.18;100.00;96415.16;5059000;28;20369;-69
2023/01/10 00:22:52;;;;;;;;;;;;;;;3.04;100.00;96418.09;5062646;28;19940;-69
2023/01/10 00:25:19;;;;;;;;;;;;;;;3.01;100.00;96416.03;5040213;28;19916;-70
2023/01/10 00:27:48;;;;;;;;;;;;;;;3.08;100.00;96420.13;5063155;28;20546;-69
2023/01/10 00:30:14;;;;;;;;;;;;;;;2.92;100.00;96427.97;5024179;28;19916;-69
2023/01/10 00:32:40;;;;;;;;;;;;;;;2.90;100.00;96430.22;5065994;28;19917;-71
2023/01/10 00:35:05;;;;;;;;;;;;;;;2.87;100.00;96439.78;5065140;28;20039;-71
2023/01/10 00:37:31;;;;;;;;;;;;;;;2.84;100.00;96438.50;5061906;28;20425;-69
2023/01/10 00:39:57;;;;;;;;;;;;;;;2.80;100.00;96445.69;5044373;28;19927;-70
2023/01/10 00:45:06;;;;;;;;;;;;;;;2.85;100.00;96453.63;5058906;28;19917;-70
2023/01/10 00:47:32;;;;;;;;;;;;;;;2.98;100.00;96454.53;5062789;28;19944;-70
2023/01/10 00:49:57;;;;;;;;;;;;;;;2.96;100.00;96467.59;5062410;28;19916;-69
2023/01/10 00:52:22;;;;;;;;;;;;;;;2.82;100.00;96475.13;5057983;28;19951;-71
2023/01/10 00:54:48;;;;;;;;;;;;;;;2.90;100.00;96481.63;5045165;28;19924;-69
2023/01/10 00:57:13;;;;;;;;;;;;;;;2.84;100.00;96475.59;5058446;28;19946;-68
2023/01/10 00:59:38;;;;;;;;;;;;;;;2.70;100.00;96485.78;5062509;28;20334;-69
2023/01/10 01:02:04;;;;;;;;;;;;;;;2.65;100.00;96489.47;5059608;28;19923;-70
2023/01/10 01:04:32;;;;;;;;;;;;;;;2.65;100.00;96500.28;5064879;28;19974;-69
2023/01/10 01:06:58;;;;;;;;;;;;;;;2.65;100.00;96503.00;5067094;28;20007;-70
2023/01/10 01:09:24;;;;;;;;;;;;;;;2.57;100.00;96509.19;5063203;28;20540;-69
2023/01/10 01:11:49;;;;;;;;;;;;;;;2.63;100.00;96514.13;5065513;28;20383;-70
2023/01/10 01:14:14;;;;;;;;;;;;;;;2.72;100.00;96530.34;5062756;28;19916;-71
2023/01/10 01:16:39;;;;;;;;;;;;;;;2.81;100.00;96539.25;5084531;28;19920;-71
2023/01/10 01:19:05;;;;;;;;;;;;;;;2.75;100.00;96540.50;5080314;28;19920;-73
2023/01/10 01:21:30;;;;;;;;;;;;;;;2.65;100.00;96538.94;5078280;28;19917;-70
2023/01/10 01:23:55;;;;;;;;;;;;;;;2.64;100.00;96552.78;5076791;28;19973;-72
2023/01/10 01:26:24;;;;;;;;;;;;;;;2.59;100.00;96552.94;5057133;28;19916;-72
2023/01/10 01:28:49;;;;;;;;;;;;;;;2.63;100.00;96565.50;5081067;28;19926;-71
2023/01/10 01:31:14;;;;;;;;;;;;;;;2.64;100.00;96572.47;5057961;28;19980;-72
2023/01/10 01:33:40;;;;;;;;;;;;;;;2.64;100.00;96585.22;5077903;28;19924;-72
2023/01/10 01:36:09;;;;;;;;;;;;;;;2.65;100.00;96593.00;5057562;28;19924;-71
2023/01/10 01:38:35;;;;;;;;;;;;;;;2.62;100.00;96599.06;5082289;28;19943;-71
2023/01/10 01:41:00;;;;;;;;;;;;;;;2.72;100.00;96597.97;5083026;28;19916;-71
2023/01/10 01:43:26;;;;;;;;;;;;;;;2.76;100.00;96608.94;5077186;28;19921;-68
2023/01/10 01:45:52;;;;;;;;;;;;;;;2.74;100.00;96611.13;5076186;28;19917;-70
2023/01/10 01:48:19;;;;;;;;;;;;;;;2.65;100.00;96625.47;5071971;28;19916;-71
2023/01/10 01:50:47;;;;;;;;;;;;;;;2.65;100.00;96628.16;5079287;28;19916;-69
2023/01/10 01:53:30;;;;;;;;;;;;;;;2.60;100.00;96632.94;5074372;28;20304;-71
2023/01/10 01:55:58;;;;;;;;;;;;;;;2.67;100.00;96638.69;5080561;28;19925;-73
2023/01/10 01:58:26;;;;;;;;;;;;;;;2.64;100.00;96645.50;5077823;28;20058;-71
2023/01/10 02:00:51;;;;;;;;;;;;;;;2.61;100.00;96650.75;5063766;28;19917;-70
2023/01/10 02:03:17;;;;;;;;;;;;;;;2.66;100.00;96648.69;5058578;28;19923;-71
2023/01/10 02:05:43;;;;;;;;;;;;;;;2.60;100.00;96649.94;5081374;28;20193;-71
2023/01/10 02:08:09;;;;;;;;;;;;;;;2.57;100.00;96660.59;5058272;28;19923;-70
2023/01/10 02:10:41;;;;;;;;;;;;;;;2.62;100.00;96660.47;5073693;28;20015;-71
2023/01/10 02:13:07;;;;;;;;;;;;;;;2.53;100.00;96665.06;5071466;28;19952;-77
2023/01/10 02:15:33;;;;;;;;;;;;;;;2.57;100.00;96666.81;5076602;28;19969;-68
2023/01/10 02:18:00;;;;;;;;;;;;;;;2.61;100.00;96672.38;5076995;28;19920;-72
2023/01/10 02:20:33;;;;;;;;;;;;;;;2.60;100.00;96674.28;5078143;28;19917;-72
2023/01/10 02:23:11;;;;;;;;;;;;;;;2.58;100.00;96676.50;5065415;28;19988;-71
2023/01/10 02:25:42;;;;;;;;;;;;;;;2.55;100.00;96671.72;5040774;28;19971;-72
2023/01/10 02:28:43;;;;;;;;;;;;;;;2.56;100.00;96675.25;5048900;28;19920;-70
2023/01/10 02:31:08;;;;;;;;;;;;;;;2.61;100.00;96678.59;5022632;28;19924;-70
2023/01/10 02:33:33;;;;;;;;;;;;;;;2.54;100.00;96677.44;5058743;28;19917;-69
2023/01/10 02:35:59;;;;;;;;;;;;;;;2.59;100.00;96688.13;5065707;28;19927;-68
2023/01/10 02:38:24;;;;;;;;;;;;;;;2.69;100.00;96682.41;5061352;28;20396;-69
2023/01/10 02:40:55;;;;;;;;;;;;;;;2.56;100.00;96686.06;5065933;28;20515;-69
2023/01/10 02:43:28;;;;;;;;;;;;;;;2.56;100.00;96694.19;5060244;28;19917;-70
2023/01/10 02:45:56;;;;;;;;;;;;;;;2.49;100.00;96692.72;5065819;28;19924;-70
2023/01/10 02:48:21;;;;;;;;;;;;;;;2.47;100.00;96702.25;5042832;28;21486;-70
2023/01/10 02:51:09;;;;;;;;;;;;;;;2.40;100.00;96712.75;5064636;28;19924;-70
2023/01/10 02:53:40;;;;;;;;;;;;;;;2.39;100.00;96720.03;5058072;28;19924;-70
2023/01/10 02:56:11;;;;;;;;;;;;;;;2.42;100.00;96722.13;5058787;28;19964;-71
2023/01/10 02:58:45;;;;;;;;;;;;;;;2.49;100.00;96724.38;5064857;28;20387;-69
2023/01/10 03:01:32;;;;;;;;;;;;;;;2.53;100.00;96728.03;5060478;28;19927;-69
2023/01/10 03:04:04;;;;;;;;;;;;;;;2.59;100.00;96729.50;5047182;28;19957;-69
2023/01/10 03:06:50;;;;;;;;;;;;;;;2.63;100.00;96741.28;5062265;28;19990;-70
2023/01/10 03:09:22;;;;;;;;;;;;;;;2.62;100.00;96741.59;5060903;28;19974;-69
2023/01/10 03:11:48;;;;;;;;;;;;;;;2.71;100.00;96741.63;5064163;28;19920;-70
2023/01/10 03:14:25;;;;;;;;;;;;;;;2.81;100.00;96744.00;5059444;28;20023;-70
2023/01/10 03:17:03;;;;;;;;;;;;;;;2.84;100.00;96733.34;5064547;28;19974;-69
2023/01/10 03:19:31;;;;;;;;;;;;;;;2.72;100.00;96752.13;5060925;28;20377;-71
2023/01/10 03:21:59;;;;;;;;;;;;;;;2.78;100.00;96752.75;5045653;28;20007;-71
2023/01/10 03:24:32;;;;;;;;;;;;;;;2.84;100.00;96762.31;5057985;28;19916;-70
2023/01/10 03:27:10;;;;;;;;;;;;;;;2.79;100.00;96765.16;5044323;28;19917;-69
2023/01/10 03:29:50;;;;;;;;;;;;;;;2.77;100.00;96770.09;5062641;28;19931;-70
2023/01/10 03:32:18;;;;;;;;;;;;;;;2.79;100.00;96786.81;5058012;28;19935;-71
2023/01/10 03:34:44;;;;;;;;;;;;;;;2.80;100.00;96796.53;5063700;28;19923;-71
2023/01/10 03:37:16;;;;;;;;;;;;;;;2.79;100.00;96789.50;5039789;28;20349;-69
2023/01/10 03:40:00;;;;;;;;;;;;;;;2.69;100.00;96798.72;5062312;28;19917;-70
2023/01/10 03:44:42;;;;;;;;;;;;;;;2.76;100.00;96803.69;5058437;28;19927;-69
2023/01/10 03:45:26;;;;;;;;;;;;;;;2.81;100.00;96815.16;5056965;28;19920;-73
2023/01/10 03:47:54;;;;;;;;;;;;;;;2.64;100.00;96818.56;5020258;28;19920;-69
2023/01/10 03:50:24;;;;;;;;;;;;;;;2.72;100.00;96822.44;5017463;28;19924;-71
2023/01/10 03:52:49;;;;;;;;;;;;;;;2.60;100.00;96823.00;5014890;28;19917;-70
2023/01/10 03:55:19;;;;;;;;;;;;;;;2.68;100.00;96826.84;5023786;28;19947;-69
2023/01/10 03:57:45;;;;;;;;;;;;;;;2.58;100.00;96836.06;5004856;28;19988;-69
2023/01/10 04:00:10;;;;;;;;;;;;;;;2.70;100.00;96823.84;5018123;28;19974;-69
2023/01/10 04:02:36;;;;;;;;;;;;;;;2.62;100.00;96837.00;5022293;28;19921;-71
2023/01/10 04:05:01;;;;;;;;;;;;;;;2.61;100.00;96840.84;5004819;28;19929;-68
2023/01/10 04:07:26;;;;;;;;;;;;;;;2.60;100.00;96841.16;5018692;28;19921;-72
2023/01/10 04:09:52;;;;;;;;;;;;;;;2.61;100.00;96850.84;5006194;28;20358;-70
2023/01/10 04:12:19;;;;;;;;;;;;;;;2.67;100.00;96849.63;5017920;28;20433;-70
2023/01/10 04:14:45;;;;;;;;;;;;;;;2.64;100.00;96856.44;5023159;28;20315;-70
2023/01/10 04:17:11;;;;;;;;;;;;;;;2.72;100.00;96857.59;5018345;28;19931;-70
2023/01/10 04:19:36;;;;;;;;;;;;;;;2.68;100.00;96857.44;5023025;28;19921;-71
2023/01/10 04:22:02;;;;;;;;;;;;;;;2.66;100.00;96864.25;5021493;28;19921;-74
2023/01/10 04:24:27;;;;;;;;;;;;;;;2.75;100.00;96867.78;5020809;28;19921;-70
2023/01/10 04:26:52;;;;;;;;;;;;;;;2.66;100.00;96875.84;5022589;28;20390;-71
2023/01/10 04:29:18;;;;;;;;;;;;;;;2.68;100.00;96880.94;5017815;28;19952;-72
2023/01/10 04:31:43;;;;;;;;;;;;;;;2.70;100.00;96888.75;5023473;28;19921;-73
2023/01/10 04:34:08;;;;;;;;;;;;;;;2.70;100.00;96902.28;5021017;28;19921;-69
2023/01/10 04:36:35;;;;;;;;;;;;;;;2.68;100.00;96899.88;5038521;28;19929;-71
2023/01/10 04:39:00;;;;;;;;;;;;;;;2.69;100.00;96906.91;5030607;28;20001;-70
2023/01/10 04:41:25;;;;;;;;;;;;;;;2.65;100.00;96916.75;5018306;28;19980;-71
2023/01/10 04:43:51;;;;;;;;;;;;;;;2.65;100.00;96916.75;5022500;28;19917;-71
2023/01/10 04:46:16;;;;;;;;;;;;;;;2.63;100.00;96917.06;5016473;28;19918;-70
2023/01/10 04:48:41;;;;;;;;;;;;;;;2.60;100.00;96916.88;5022371;28;19928;-69
2023/01/10 04:51:06;;;;;;;;;;;;;;;2.70;100.00;96918.50;5022094;28;19917;-69
2023/01/10 04:53:32;;;;;;;;;;;;;;;2.59;100.00;96935.00;5033547;28;19956;-71
2023/01/10 04:56:01;;;;;;;;;;;;;;;2.54;100.00;96937.03;5030203;28;19976;-71
2023/01/10 04:58:26;;;;;;;;;;;;;;;2.56;100.00;96940.25;5024008;28;19945;-71
2023/01/10 05:00:51;;;;;;;;;;;;;;;2.56;100.00;96941.03;5035291;28;20258;-70
2023/01/10 05:03:19;;;;;;;;;;;;;;;2.56;100.00;96953.75;5005388;28;19921;-68
2023/01/10 05:05:44;;;;;;;;;;;;;;;2.62;100.00;96955.22;5005796;28;20016;-69
2023/01/10 05:08:09;;;;;;;;;;;;;;;2.62;100.00;96944.41;5018309;28;20011;-67
2023/01/10 05:10:34;;;;;;;;;;;;;;;2.55;100.00;96950.22;5021957;28;19948;-68
2023/01/10 05:13:00;;;;;;;;;;;;;;;2.53;100.00;96965.97;5022439;28;19928;-71
2023/01/10 05:15:25;;;;;;;;;;;;;;;2.49;100.00;96967.69;5016712;28;20015;-69
2023/01/10 05:17:56;;;;;;;;;;;;;;;2.58;100.00;96968.56;5022558;28;20019;-69
2023/01/10 05:20:21;;;;;;;;;;;;;;;2.51;100.00;96984.41;4999187;28;20263;-69
2023/01/10 05:22:48;;;;;;;;;;;;;;;2.49;100.00;96976.59;5022251;28;19925;-66
2023/01/10 05:25:13;;;;;;;;;;;;;;;2.56;100.00;96984.28;4982747;28;20263;-67
2023/01/10 05:27:42;;;;;;;;;;;;;;;2.57;100.00;96985.09;5021914;28;19917;-69
2023/01/10 05:30:11;;;;;;;;;;;;;;;2.49;100.00;96992.81;5016875;28;19955;-68
2023/01/10 05:32:36;;;;;;;;;;;;;;;2.52;100.00;97004.94;5033700;28;19921;-67
2023/01/10 05:35:02;;;;;;;;;;;;;;;2.56;100.00;97003.22;5005490;28;19928;-69
2023/01/10 05:37:27;;;;;;;;;;;;;;;2.48;100.00;97012.88;5016174;28;19921;-68
2023/01/10 05:39:53;;;;;;;;;;;;;;;2.49;100.00;97019.84;5021872;28;19929;-68
2023/01/10 05:42:18;;;;;;;;;;;;;;;2.48;100.00;97023.69;5017555;28;19917;-67
2023/01/10 05:44:43;;;;;;;;;;;;;;;2.45;100.00;97024.28;5004560;28;19940;-68
2023/01/10 05:47:08;;;;;;;;;;;;;;;2.49;100.00;97027.97;5017214;28;19969;-67
2023/01/10 05:49:34;;;;;;;;;;;;;;;2.46;100.00;97031.28;5020983;28;20337;-67
2023/01/10 05:51:59;;;;;;;;;;;;;;;2.42;100.00;97034.91;5025583;28;19929;-66
2023/01/10 05:54:24;;;;;;;;;;;;;;;2.40;100.00;97048.72;5002952;28;19917;-68
2023/01/10 05:56:49;;;;;;;;;;;;;;;2.50;100.00;97050.41;5024944;28;19928;-69
2023/01/10 05:59:15;;;;;;;;;;;;;;;2.41;100.00;97061.16;5020763;28;20003;-68
2023/01/10 06:01:40;;;;;;;;;;;;;;;2.57;100.00;97068.91;5025697;28;19917;-66
2023/01/10 06:04:05;;;;;;;;;;;;;;;2.46;100.00;97066.44;5002814;28;20020;-68
2023/01/10 06:06:33;;;;;;;;;;;;;;;2.44;100.00;97073.25;5009303;28;19956;-68
2023/01/10 06:08:58;;;;;;;;;;;;;;;2.49;100.00;97076.63;5008070;28;19928;-69
2023/01/10 06:11:28;;;;;;;;;;;;;;;2.59;100.00;97082.91;5020780;28;20003;-67
2023/01/10 06:13:54;;;;;;;;;;;;;;;2.52;100.00;97082.53;5026147;28;20266;-67
2023/01/10 06:16:20;;;;;;;;;;;;;;;2.59;100.00;97094.56;5020078;28;19928;-67
2023/01/10 06:18:45;;;;;;;;;;;;;;;2.64;100.00;97085.50;5024653;28;20390;-67
2023/01/10 06:21:10;;;;;;;;;;;;;;;2.53;100.00;97089.56;5002100;28;19972;-69
2023/01/10 06:23:36;;;;;;;;;;;;;;;2.51;100.00;97105.28;5025544;28;19917;-69
2023/01/10 06:26:01;;;;;;;;;;;;;;;2.39;100.00;97101.19;5006948;28;19917;-67
2023/01/10 06:28:26;;;;;;;;;;;;;;;2.37;100.00;97114.22;5019244;28;19917;-67
2023/01/10 06:30:51;;;;;;;;;;;;;;;2.37;100.00;97113.41;5024327;28;20350;-68
2023/01/10 06:33:17;;;;;;;;;;;;;;;2.34;100.00;97116.72;5019937;28;19917;-68
2023/01/10 06:35:42;;;;;;;;;;;;;;;2.30;100.00;97119.22;5024720;28;19917;-68
2023/01/10 06:38:07;;;;;;;;;;;;;;;2.27;100.00;97127.97;4985756;28;19971;-69
2023/01/10 06:40:33;;;;;;;;;;;;;;;2.36;100.00;97133.44;5024560;28;19961;-68
2023/01/10 06:42:58;;;;;;;;;;;;;;;2.31;100.00;97138.97;5008771;28;19917;-67
2023/01/10 06:45:24;;;;;;;;;;;;;;;2.39;100.00;97140.94;5021595;28;19921;-69
2023/01/10 06:47:49;;;;;;;;;;;;;;;2.29;100.00;97141.97;5025006;28;19921;-68
2023/01/10 06:50:15;;;;;;;;;;;;;;;2.42;100.00;97146.56;5047798;28;20320;-67
2023/01/10 06:52:40;;;;;;;;;;;;;;;2.47;100.00;97151.84;5064797;28;20292;-67
2023/01/10 06:55:06;;;;;;;;;;;;;;;2.42;100.00;97154.66;5075521;28;19927;-69
2023/01/10 06:57:37;;;;;;;;;;;;;;;2.44;100.00;97170.59;5079390;28;19940;-68
2023/01/10 07:00:05;;;;;;;;;;;;;;;2.62;100.00;97171.56;5060086;28;19996;-68
2023/01/10 07:02:31;;;;;;;;;;;;;;;2.54;100.00;97175.78;5045185;28;19920;-68
2023/01/10 07:04:56;;;;;;;;;;;;;;;2.57;100.00;97193.31;5048425;28;19955;-67
2023/01/10 07:07:21;;;;;;;;;;;;;;;2.53;100.00;97190.41;5041815;28;19925;-66
2023/01/10 07:09:47;;;;;;;;;;;;;;;2.66;100.00;97194.19;5045381;28;19944;-65
2023/01/10 07:12:12;;;;;;;;;;;;;;;2.65;100.00;97196.09;5024039;28;20444;-69
2023/01/10 07:14:37;;;;;;;;;;;;;;;2.68;100.00;97192.78;5045741;28;19921;-66
2023/01/10 07:17:02;;;;;;;;;;;;;;;2.57;100.00;97191.38;5042026;28;20015;-67
2023/01/10 07:19:28;;;;;;;;;;;;;;;2.61;100.00;97191.59;5045677;28;20028;-66
2023/01/10 07:21:53;;;;;;;;;;;;;;;2.52;100.00;97201.50;5046495;28;19951;-68
2023/01/10 07:24:18;;;;;;;;;;;;;;;2.41;100.00;97207.16;5043106;28;19917;-68
2023/01/10 07:26:44;;;;;;;;;;;;;;;2.41;100.00;97206.31;5046328;28;20374;-68
2023/01/10 07:29:09;;;;;;;;;;;;;;;2.39;100.00;97212.03;5042281;28;19921;-67
2023/01/10 07:31:34;;;;;;;;;;;;;;;2.44;100.00;97222.75;5045515;28;19916;-67
2023/01/10 07:33:59;;;;;;;;;;;;;;;2.50;100.00;97220.75;5046011;28;20366;-66
2023/01/10 07:36:25;;;;;;;;;;;;;;;2.50;100.00;97226.16;5042457;28;19928;-65
2023/01/10 07:38:50;;;;;;;;;;;;;;;2.51;100.00;97235.09;5045700;28;19923;-65
2023/01/10 07:41:15;;;;;;;;;;;;;;;2.52;100.00;97232.09;5042275;28;20376;-65
2023/01/10 07:43:41;;;;;;;;;;;;;;;2.48;100.00;97242.69;5047611;28;19964;-68
2023/01/10 07:46:10;;;;;;;;;;;;;;;2.45;100.00;97242.50;5023806;28;19917;-68
2023/01/10 07:48:36;;;;;;;;;;;;;;;2.48;100.00;97247.28;5049850;28;19974;-67
2023/01/10 07:51:02;;;;;;;;;;;;;;;2.54;100.00;97250.69;5059970;28;19921;-67
2023/01/10 07:53:27;;;;;;;;;;;;;;;2.53;100.00;97249.88;5057495;28;19925;-65
2023/01/10 07:55:53;;;;;;;;;;;;;;;2.57;100.00;97250.09;5058622;28;20436;-67
2023/01/10 07:58:19;;;;;;;;;;;;;;;2.65;100.00;97252.91;5050091;28;19920;-67
2023/01/10 08:00:49;;;;;;;;;;;;;;;2.64;100.00;97251.28;5037044;28;20337;-67
2023/01/10 08:03:14;;;;;;;;;;;;;;;2.68;100.00;97256.88;5043951;28;19916;-67
2023/01/10 08:05:40;;;;;;;;;;;;;;;2.75;100.00;97259.19;5047257;28;20436;-67
2023/01/10 08:08:06;;;;;;;;;;;;;;;2.83;100.00;97263.91;5041393;28;19921;-67
2023/01/10 08:10:32;;;;;;;;;;;;;;;2.79;100.00;97271.84;5028988;28;20288;-67
2023/01/10 08:12:57;;;;;;;;;;;;;;;2.78;100.00;97288.34;5028977;28;20019;-67
2023/01/10 08:15:22;;;;;;;;;;;;;;;2.89;100.00;97288.97;5041146;28;20015;-68
2023/01/10 08:17:48;;;;;;;;;;;;;;;2.93;100.00;97298.06;5027994;28;19921;-65
2023/01/10 08:20:13;;;;;;;;;;;;;;;2.94;100.00;97297.75;5045870;28;19924;-68
2023/01/10 08:22:38;;;;;;;;;;;;;;;3.00;100.00;97301.16;5047681;28;20374;-67
2023/01/10 08:25:04;;;;;;;;;;;;;;;3.00;100.00;97306.56;5020048;28;19975;-67
2023/01/10 08:27:29;;;;;;;;;;;;;;;3.02;100.00;97309.78;5041416;28;19920;-66
2023/01/10 08:29:54;;;;;;;;;;;;;;;3.11;100.00;97326.13;5042611;28;19960;-67
2023/01/10 08:32:21;;;;;;;;;;;;;;;3.23;100.00;97313.66;5033749;28;20294;-67
2023/01/10 08:34:46;;;;;;;;;;;;;;;3.36;100.00;97330.97;5024313;28;19917;-67
2023/01/10 08:37:12;;;;;;;;;;;;;;;3.44;100.00;97335.69;5038011;28;19928;-68
2023/01/10 08:39:38;;;;;;;;;;;;;;;3.25;100.00;97333.09;5024264;28;19917;-66
2023/01/10 08:42:03;;;;;;;;;;;;;;;3.34;100.00;97332.41;5039386;28;19924;-67
2023/01/10 08:44:29;;;;;;;;;;;;;;;3.35;100.00;97325.88;5040532;28;19917;-65
2023/01/10 08:46:55;;;;;;;;;;;;;;;3.20;100.00;97318.88;5041259;28;19927;-66
2023/01/10 08:49:20;;;;;;;;;;;;;;;3.30;100.00;97332.22;5035514;28;19917;-65
2023/01/10 08:51:46;;;;;;;;;;;;;;;3.34;100.00;97330.50;5042249;28;20258;-66
2023/01/10 08:54:11;;;;;;;;;;;;;;;3.37;100.00;97332.59;5038860;28;19975;-65
2023/01/10 08:56:38;;;;;;;;;;;;;;;3.30;100.00;97339.53;5041247;28;20588;-66
2023/01/10 08:59:04;;;;;;;;;;;;;;;3.28;100.00;97331.72;5038429;28;19917;-69
2023/01/10 09:01:29;;;;;;;;;;;;;;;3.40;100.00;97342.81;5041747;28;20258;-67
2023/01/10 09:03:55;;;;;;;;;;;;;;;3.48;100.00;97354.03;5053968;28;19921;-67
2023/01/10 09:06:20;;;;;;;;;;;;;;;3.45;100.00;97358.16;5037492;28;19958;-66
2023/01/10 09:08:45;;;;;;;;;;;;;;;3.44;100.00;97359.28;5023488;28;19927;-67
2023/01/10 09:11:10;;;;;;;;;;;;;;;3.43;100.00;97360.34;5038294;28;19999;-65
2023/01/10 09:13:36;;;;;;;;;;;;;;;3.50;100.00;97355.34;5023257;28;19924;-67
2023/01/10 09:16:01;;;;;;;;;;;;;;;3.63;100.00;97359.09;5041602;28;20374;-66
2023/01/10 09:18:26;;;;;;;;;;;;;;;3.52;100.00;97368.56;5019707;28;20014;-65
2023/01/10 09:20:52;;;;;;;;;;;;;;;3.58;100.00;97380.88;5040979;28;20018;-65
2023/01/10 09:23:19;;;;;;;;;;;;;;;3.66;100.00;97382.88;5017487;28;20055;-66
2023/01/10 09:25:44;;;;;;;;;;;;;;;3.62;100.00;97387.31;5042529;28;20752;-65
2023/01/10 09:28:10;;;;;;;;;;;;;;;3.76;100.00;97392.69;5041443;28;19976;-66
2023/01/10 09:30:35;;;;;;;;;;;;;;;3.58;100.00;97391.72;5027135;28;19974;-65
2023/01/10 09:33:00;;;;;;;;;;;;;;;3.63;100.00;97388.91;5045418;28;19939;-65
2023/01/10 09:35:27;;;;;;;;;;;;;;;3.61;100.00;97396.53;5040181;28;19921;-66
2023/01/10 09:37:53;;;;;;;;;;;;;;;3.72;100.00;97392.50;5027515;28;19920;-67
2023/01/10 09:40:24;;;;;;;;;;;;;;;3.72;100.00;97399.84;5041136;28;19921;-66
2023/01/10 09:43:25;;;;;;;;;;;;;;;3.65;100.00;97400.25;5045187;28;19917;-66
2023/01/10 09:45:59;;;;;;;;;;;;;;;3.82;100.00;97405.03;4943795;28;19919;-66
2023/01/10 09:48:29;;;;;;;;;;;;;;;4.11;100.00;97410.06;5012436;28;19921;-65
2023/01/10 09:50:57;;;;;;;;;;;;;;;4.21;100.00;97411.72;5053201;28;20027;-65
2023/01/10 09:53:24;;;;;;;;;;;;;;;4.19;100.00;97408.50;5044873;28;20003;-66
2023/01/10 09:55:54;;;;;;;;;;;;;;;4.15;100.00;97412.94;5045581;28;19925;-65
2023/01/10 09:58:22;;;;;;;;;;;;;;;4.27;100.00;97415.94;5040597;28;19925;-65
2023/01/10 10:00:58;;;;;;;;;;;;;;;4.29;100.00;97404.78;5027298;28;19924;-65
2023/01/10 10:03:36;;;;;;;;;;;;;;;4.41;100.00;97402.28;5040523;28;20339;-65
2023/01/10 10:06:01;;;;;;;;;;;;;;;4.55;100.00;97410.34;5027144;28;19979;-65
2023/01/10 10:08:27;;;;;;;;;;;;;;;4.98;100.00;97415.22;5041016;28;19924;-66
2023/01/10 10:11:10;;;;;;;;;;;;;;;5.87;99.44;97421.41;5045294;28;19917;-65
2023/01/10 10:13:44;;;;;;;;;;;;;;;5.98;97.10;97416.50;5026858;28;19916;-65
2023/01/10 10:16:28;;;;;;;;;;;;;;;6.35;94.99;97421.59;5039647;28;19917;-66
2023/01/10 10:18:56;;;;;;;;;;;;;;;6.27;96.55;97426.72;5044955;28;19944;-65
2023/01/10 10:21:24;;;;;;;;;;;;;;;5.76;97.26;97425.53;5040562;28;19932;-66
2023/01/10 10:23:49;;;;;;;;;;;;;;;6.36;95.54;97426.72;5010920;28;19967;-67
2023/01/10 10:26:14;;;;;;;;;;;;;;;6.95;92.72;97419.88;5038804;28;20362;-67
2023/01/10 10:28:58;;;;;;;;;;;;;;;6.73;90.61;97423.63;5026418;28;20443;-67
2023/01/10 10:31:36;;;;;;;;;;;;;;;6.81;87.75;97423.63;5059851;28;20075;-67
2023/01/10 10:34:04;;;;;;;;;;;;;;;6.07;94.71;97414.56;5063089;28;19920;-69
2023/01/10 10:36:37;;;;;;;;;;;;;;;5.75;94.58;97397.56;5063517;28;19920;-67
2023/01/10 10:39:02;;;;;;;;;;;;;;;5.91;96.02;97406.03;5044707;28;19921;-67
2023/01/10 10:41:34;;;;;;;;;;;;;;;6.21;95.02;97408.16;5055870;28;19923;-68
2023/01/10 10:44:03;;;;;;;;;;;;;;;6.33;91.50;97402.88;5076626;28;19916;-67
2023/01/10 10:46:30;;;;;;;;;;;;;;;6.07;92.26;97403.69;5063149;28;19924;-67
2023/01/10 10:48:57;;;;;;;;;;;;;;;5.88;93.01;97405.88;5063809;28;19923;-67
2023/01/10 10:51:23;;;;;;;;;;;;;;;5.84;92.35;97407.66;5059629;28;20368;-67
2023/01/10 10:53:49;;;;;;;;;;;;;;;5.72;93.77;97400.09;5057516;28;19916;-67
2023/01/10 10:56:16;;;;;;;;;;;;;;;5.55;93.28;97404.41;5058090;28;20429;-67
2023/01/10 10:58:43;;;;;;;;;;;;;;;5.56;91.95;97405.19;5063521;28;19917;-67
2023/01/10 11:01:15;;;;;;;;;;;;;;;5.04;94.08;97414.00;5058768;28;19917;-67
2023/01/10 11:04:04;;;;;;;;;;;;;;;5.22;94.06;97412.16;5063517;28;19917;-66
2023/01/10 11:06:29;;;;;;;;;;;;;;;5.22;94.13;97400.47;5052245;28;20639;-66
2023/01/10 11:08:56;;;;;;;;;;;;;;;5.45;92.64;97401.16;5063489;28;20004;-66
2023/01/10 11:11:26;;;;;;;;;;;;;;;5.27;91.79;97392.16;5059190;28;20351;-67
2023/01/10 11:14:05;;;;;;;;;;;;;;;5.38;92.66;97407.06;5069609;28;19978;-67
2023/01/10 11:16:32;;;;;;;;;;;;;;;5.48;90.96;97409.50;5072386;28;19920;-66
2023/01/10 11:19:08;;;;;;;;;;;;;;;5.86;89.97;97408.13;5069887;28;20011;-66
2023/01/10 11:21:34;;;;;;;;;;;;;;;6.63;85.18;97398.34;5046619;28;20396;-68
2023/01/10 11:23:59;;;;;;;;;;;;;;;6.70;85.47;97393.22;5064745;28;19917;-66
2023/01/10 11:26:39;;;;;;;;;;;;;;;6.73;83.86;97402.66;5059993;28;19920;-66
2023/01/10 11:29:07;;;;;;;;;;;;;;;6.45;83.48;97388.63;5063843;28;19932;-68
2023/01/10 11:31:33;;;;;;;;;;;;;;;6.92;82.16;97385.16;5076681;28;19917;-66
2023/01/10 11:34:00;;;;;;;;;;;;;;;6.94;82.05;97385.63;5075097;28;19944;-67
2023/01/10 11:36:25;;;;;;;;;;;;;;;7.44;78.75;97387.66;5066372;28;19967;-66
2023/01/10 11:38:58;;;;;;;;;;;;;;;8.23;76.20;97393.34;5066683;28;19955;-66
2023/01/10 11:41:26;;;;;;;;;;;;;;;8.44;71.95;97387.88;5072282;28;20794;-66
2023/01/10 11:43:51;;;;;;;;;;;;;;;7.73;72.88;97389.53;5070979;28;19917;-66
2023/01/10 11:46:20;;;;;;;;;;;;;;;7.11;76.71;97384.75;5059066;28;20400;-66
2023/01/10 11:49:04;;;;;;;;;;;;;;;6.42;79.21;97387.34;5063500;28;19921;-65
2023/01/10 11:51:32;;;;;;;;;;;;;;;6.26;80.78;97397.13;5062835;28;19931;-66
2023/01/10 11:53:58;;;;;;;;;;;;;;;6.08;83.26;97380.78;5063356;28;19916;-66
2023/01/10 11:56:26;;;;;;;;;;;;;;;6.05;82.79;97375.19;5057274;28;19924;-67
2023/01/10 11:58:52;;;;;;;;;;;;;;;5.99;83.29;97384.66;5062300;28;19921;-67
2023/01/10 12:01:25;;;;;;;;;;;;;;;5.75;84.58;97375.81;5039168;28;20514;-64
2023/01/10 12:03:51;;;;;;;;;;;;;;;5.48;86.93;97378.81;5063275;28;19927;-66
2023/01/10 12:06:16;;;;;;;;;;;;;;;5.29;86.37;97379.06;5039796;28;20406;-66
2023/01/10 12:08:43;;;;;;;;;;;;;;;5.57;86.42;97390.50;5060965;28;19928;-65
2023/01/10 12:11:26;;;;;;;;;;;;;;;5.83;86.25;97376.13;5059162;28;19959;-65
2023/01/10 12:13:52;;;;;;;;;;;;;;;5.80;85.95;97376.75;5064488;28;19924;-65
2023/01/10 12:16:23;;;;;;;;;;;;;;;5.85;85.24;97379.31;5068316;28;19924;-66
2023/01/10 12:18:50;;;;;;;;;;;;;;;5.94;82.41;97367.34;5069596;28;19920;-66
2023/01/10 12:21:18;;;;;;;;;;;;;;;6.17;82.34;97372.63;5058403;28;19934;-66
2023/01/10 12:23:45;;;;;;;;;;;;;;;6.01;81.71;97361.44;5066672;28;19920;-66
2023/01/10 12:26:14;;;;;;;;;;;;;;;5.94;83.32;97366.53;5056777;28;19967;-66
2023/01/10 12:28:48;;;;;;;;;;;;;;;5.92;84.33;97369.59;5071507;28;19917;-67
2023/01/10 12:31:14;;;;;;;;;;;;;;;6.56;82.64;97361.88;5058788;28;19920;-66
2023/01/10 12:33:45;;;;;;;;;;;;;;;6.46;82.10;97361.09;5060842;28;19923;-67
2023/01/10 12:36:29;;;;;;;;;;;;;;;6.42;82.53;97372.94;5055227;28;19955;-67
2023/01/10 12:39:13;;;;;;;;;;;;;;;6.60;81.57;97374.50;5044134;28;19963;-67
2023/01/10 12:44:36;;;;;;;;;;;;;;;6.41;82.44;97371.31;5057535;28;19917;-67
2023/01/10 12:47:11;;;;;;;;;;;;;;;6.35;83.62;97361.75;5062889;28;19991;-67
2023/01/10 12:49:52;;;;;;;;;;;;;;;6.13;85.02;97356.16;5062560;28;19917;-67
2023/01/10 12:52:30;;;;;;;;;;;;;;;6.45;83.10;97366.84;5056066;28;20373;-67
2023/01/10 12:54:56;;;;;;;;;;;;;;;7.24;80.90;97367.38;5063203;28;19928;-65
2023/01/10 12:57:34;;;;;;;;;;;;;;;7.91;76.48;97362.16;5057196;28;19921;-65
2023/01/10 13:00:02;;;;;;;;;;;;;;;7.94;74.25;97356.84;5062997;28;19958;-65